Addieville, Illinois
Current Conditions -  °F | °C
As of 1:35 PM on Saturday 25 Oct 2014 (Local Time) from KSAR Reporting Station
Clear Clear  
Wind Chill: 76°   Ceiling: Unl
Heat Index: 78°   Visibility: 10mi
Dew Point: 59°   Wind: 5mph
Humidity: 56%   Direction: 310°NW
Pressure: 30.03"   Gusts: NA
Location:  38.39°N, 89.49°W
Report Text: KSAR 251835Z AUTO 31004KT 10SM CLR 25/15 A3003 RMK AO2 T02450152
Loading
Personal Weather Stations






























Interactive Weather Map
Tropical Storm Tracking
New forecast layout! Learn more

10-Day Weather Forecast

Advertisements
Track Severe Weather on mobile